Terminal Aerodrome Forecast
Issued by NWS

Home | Current Version | Previous Version | Text Only | Print | Product List | Glossary On
Versions: 1 2 3 4 5 6 7 8 9 10 11 12 13 14 15 16 17 18 19 20 21 22 23 24 25 26 27 28 29 30 31 32 33 34
000
FTUS41 KBOX 241729
TAFFMH
TAF
KFMH 241729Z 2418/2518 30010KT P6SM BKN150
     FM242100 VRB03KT P6SM -SHRA OVC070
     FM250000 00000KT P6SM OVC060
     FM250900 07009G22KT P6SM VCSH BKN050
     FM251000 07010G22KT 6SM -RA BR OVC045
     FM251300 11013G25KT 1SM -RA BR OVC010=

USA.gov is the U.S. government's official web portal to all federal, state and local government web resources and services.